Time;durP1;ratioP1;P1;durP2;ratioP2;P2;SDS_P1;SDS_P2;PMS_P1;PMS_P2;Temp;Humidity;BMP_temperature;BMP_pressure;BME280_temperature;BME280_humidity;BME280_pressure;Samples;Min_cycle;Max_cycle;Signal;HPM_P1;HPM_P2
2023/11/30 00:01:42;;;;;;;80.75;14.35;;;6.90;94.60;;;;;;4968839;28;20046;-51
2023/11/30 00:04:08;;;;;;;79.45;13.05;;;6.80;94.60;;;;;;4983841;28;20027;-51
2023/11/30 00:06:40;;;;;;;89.78;14.02;;;6.80;94.60;;;;;;4983811;28;20027;-51
2023/11/30 00:09:05;;;;;;;77.88;13.32;;;6.80;94.60;;;;;;4968772;28;20488;-51
2023/11/30 00:11:31;;;;;;;82.85;12.80;;;6.80;94.60;;;;;;4968606;28;20059;-51
2023/11/30 00:13:56;;;;;;;86.05;13.30;;;6.80;94.60;;;;;;4983597;28;20031;-51
2023/11/30 00:16:22;;;;;;;74.50;12.93;;;6.80;94.60;;;;;;4968676;28;20042;-52
2023/11/30 00:18:47;;;;;;;64.47;12.60;;;6.80;94.60;;;;;;4967317;29;20050;-52
2023/11/30 00:21:13;;;;;;;79.88;12.73;;;6.70;94.60;;;;;;4983802;28;20031;-52
2023/11/30 00:23:38;;;;;;;50.78;11.60;;;6.80;94.70;;;;;;4969072;28;20031;-51
2023/11/30 00:26:05;;;;;;;75.78;11.93;;;6.70;94.60;;;;;;4968393;28;20019;-52
2023/11/30 00:28:30;;;;;;;72.57;11.98;;;6.70;94.60;;;;;;4983244;28;20034;-52
2023/11/30 00:30:56;;;;;;;73.55;12.35;;;6.70;94.60;;;;;;4983232;28;20054;-52
2023/11/30 00:33:21;;;;;;;78.63;12.50;;;6.70;94.70;;;;;;4983419;28;20035;-52
2023/11/30 00:35:47;;;;;;;70.32;11.30;;;6.70;94.70;;;;;;4983161;28;20024;-51
2023/11/30 00:38:12;;;;;;;60.20;10.48;;;6.70;94.70;;;;;;4983042;28;20483;-51
2023/11/30 00:40:39;;;;;;;72.80;11.40;;;6.60;94.60;;;;;;4983168;28;20024;-51
2023/11/30 00:43:05;;;;;;;66.32;11.45;;;6.70;94.70;;;;;;4968456;28;20039;-51
2023/11/30 00:45:30;;;;;;;79.15;12.57;;;6.70;94.70;;;;;;4968239;28;20054;-51
2023/11/30 00:47:56;;;;;;;70.47;11.82;;;6.60;94.70;;;;;;4968057;28;20055;-51
2023/11/30 00:50:21;;;;;;;64.65;12.45;;;6.60;94.70;;;;;;4983134;28;20369;-51
2023/11/30 00:52:47;;;;;;;65.32;10.70;;;6.60;94.70;;;;;;4982935;28;20550;-51
2023/11/30 00:55:12;;;;;;;51.15;10.00;;;6.60;94.70;;;;;;4968088;28;20538;-51
2023/11/30 00:57:38;;;;;;;69.82;10.77;;;6.60;94.70;;;;;;4968101;28;20034;-51
2023/11/30 01:00:05;;;;;;;80.88;11.10;;;6.60;94.70;;;;;;4982808;28;20087;-51
2023/11/30 01:02:31;;;;;;;60.95;10.00;;;6.60;94.70;;;;;;4982885;28;20027;-51
2023/11/30 01:04:57;;;;;;;53.10;9.88;;;6.60;94.70;;;;;;4968012;28;20047;-52
2023/11/30 01:07:23;;;;;;;49.75;9.70;;;6.50;94.70;;;;;;4982816;28;20023;-51
2023/11/30 01:09:49;;;;;;;54.55;9.30;;;6.50;94.70;;;;;;4982701;28;20118;-51
2023/11/30 01:12:14;;;;;;;50.80;10.38;;;6.50;94.70;;;;;;4982721;28;20039;-51
2023/11/30 01:14:40;;;;;;;46.85;9.82;;;6.50;94.70;;;;;;4967729;28;20039;-51
2023/11/30 01:17:06;;;;;;;44.80;9.57;;;6.50;94.70;;;;;;4982634;28;20050;-51
2023/11/30 01:19:32;;;;;;;45.38;8.95;;;6.50;94.70;;;;;;4982939;28;20435;-51
2023/11/30 01:21:57;;;;;;;49.85;9.55;;;6.50;94.70;;;;;;4982456;28;20038;-51
2023/11/30 01:24:23;;;;;;;45.97;8.88;;;6.50;94.70;;;;;;4982724;28;20024;-52
2023/11/30 01:26:49;;;;;;;52.83;9.18;;;6.50;94.70;;;;;;4982485;28;20027;-52
2023/11/30 01:29:14;;;;;;;42.58;8.43;;;6.40;94.70;;;;;;4982529;28;20047;-51
2023/11/30 01:31:40;;;;;;;39.70;10.23;;;6.40;94.70;;;;;;4967867;28;20391;-51
2023/11/30 01:34:05;;;;;;;40.05;8.55;;;6.40;94.70;;;;;;4982511;28;20535;-51
2023/11/30 01:36:31;;;;;;;50.55;8.95;;;6.40;94.70;;;;;;4982503;28;20027;-52
2023/11/30 01:38:56;;;;;;;44.58;7.47;;;6.40;94.80;;;;;;4968760;28;20080;-52
2023/11/30 01:41:22;;;;;;;54.80;8.52;;;6.40;94.80;;;;;;4986332;28;20095;-51
2023/11/30 01:43:47;;;;;;;44.53;9.23;;;6.40;94.80;;;;;;4971512;28;20027;-51
2023/11/30 01:46:13;;;;;;;36.90;7.68;;;6.40;94.70;;;;;;4986301;28;20032;-51
2023/11/30 01:48:40;;;;;;;41.05;9.10;;;6.40;94.70;;;;;;4986435;28;20059;-51
2023/11/30 01:51:07;;;;;;;40.15;7.90;;;6.40;94.70;;;;;;4986180;28;20027;-51
2023/11/30 01:53:33;;;;;;;43.30;8.30;;;6.40;94.70;;;;;;4986029;28;20039;-51
2023/11/30 01:55:59;;;;;;;47.80;8.52;;;6.40;94.70;;;;;;4986002;28;20050;-52
2023/11/30 01:58:24;;;;;;;46.33;8.60;;;6.30;94.70;;;;;;4971718;28;20039;-51
2023/11/30 02:00:50;;;;;;;31.02;7.20;;;6.40;94.80;;;;;;4985964;28;20074;-51
2023/11/30 02:03:16;;;;;;;43.40;7.03;;;6.30;94.70;;;;;;4986226;28;20549;-52
2023/11/30 02:05:42;;;;;;;49.05;8.40;;;6.30;94.70;;;;;;4986039;28;20032;-51
2023/11/30 02:08:07;;;;;;;44.35;7.82;;;6.30;94.80;;;;;;4985910;28;20391;-51
2023/11/30 02:10:33;;;;;;;34.70;7.88;;;6.30;94.80;;;;;;4985990;28;20023;-51
2023/11/30 02:12:58;;;;;;;24.20;6.47;;;6.30;94.70;;;;;;4986026;28;20028;-51
2023/11/30 02:15:24;;;;;;;31.83;7.85;;;6.30;94.80;;;;;;4985815;28;20066;-51
2023/11/30 02:17:49;;;;;;;26.50;6.82;;;6.30;94.80;;;;;;4985995;28;20035;-51
2023/11/30 02:20:15;;;;;;;37.90;6.65;;;6.30;94.80;;;;;;4986081;28;20027;-51
2023/11/30 02:22:41;;;;;;;35.42;6.85;;;6.30;94.80;;;;;;4970746;28;20035;-51
2023/11/30 02:25:07;;;;;;;36.10;7.05;;;6.20;94.80;;;;;;4985486;28;20390;-51
2023/11/30 02:27:32;;;;;;;33.47;6.82;;;6.30;94.80;;;;;;4970676;28;20472;-51
2023/11/30 02:29:58;;;;;;;29.73;6.57;;;6.20;94.80;;;;;;4969315;29;20035;-52
2023/11/30 02:32:23;;;;;;;34.38;6.90;;;6.20;94.80;;;;;;4985440;28;20035;-51
2023/11/30 02:34:49;;;;;;;22.73;5.55;;;6.20;94.80;;;;;;4970525;28;20038;-52
2023/11/30 02:37:14;;;;;;;24.88;6.55;;;6.20;94.80;;;;;;4985135;28;20043;-52
2023/11/30 02:39:40;;;;;;;31.48;7.22;;;6.20;94.80;;;;;;4985339;28;20038;-51
2023/11/30 02:42:09;;;;;;;29.27;6.68;;;6.20;94.70;;;;;;4970359;28;20027;-51
2023/11/30 02:44:35;;;;;;;31.17;6.63;;;6.20;94.80;;;;;;4985226;28;20031;-51
2023/11/30 02:47:00;;;;;;;27.95;6.75;;;6.20;94.80;;;;;;4985167;28;20047;-52
2023/11/30 02:49:26;;;;;;;27.15;6.47;;;6.20;94.80;;;;;;4970279;28;20464;-51
2023/11/30 02:51:51;;;;;;;25.30;6.15;;;6.20;94.80;;;;;;4985105;28;20066;-52
2023/11/30 02:54:17;;;;;;;25.13;6.50;;;6.20;94.80;;;;;;4984886;28;20031;-52
2023/11/30 02:56:42;;;;;;;24.20;6.47;;;6.20;94.80;;;;;;4984745;28;20039;-52
2023/11/30 02:59:08;;;;;;;24.73;6.30;;;6.20;94.80;;;;;;4984824;28;20042;-51
2023/11/30 03:01:33;;;;;;;29.38;6.00;;;6.20;94.80;;;;;;4984813;28;20035;-52
2023/11/30 03:03:59;;;;;;;25.20;6.45;;;6.20;94.80;;;;;;4984901;28;20042;-52
2023/11/30 03:06:24;;;;;;;24.25;6.65;;;6.20;94.80;;;;;;4970862;28;20034;-51
2023/11/30 03:08:50;;;;;;;33.95;5.57;;;6.20;94.80;;;;;;4985022;28;20051;-52
2023/11/30 03:11:16;;;;;;;25.05;6.22;;;6.20;94.80;;;;;;4984646;28;20025;-51
2023/11/30 03:13:41;;;;;;;21.23;5.38;;;6.20;94.80;;;;;;4970067;28;20059;-51
2023/11/30 03:16:07;;;;;;;25.20;5.63;;;6.20;94.80;;;;;;4968487;29;20051;-51
2023/11/30 03:18:32;;;;;;;22.73;6.43;;;6.20;94.80;;;;;;4969928;28;20027;-51
2023/11/30 03:20:58;;;;;;;17.55;5.72;;;6.20;94.80;;;;;;4968282;29;20035;-52
2023/11/30 03:23:23;;;;;;;27.20;5.93;;;6.20;94.80;;;;;;4969729;28;20020;-51
2023/11/30 03:25:49;;;;;;;28.80;6.50;;;6.20;95.10;;;;;;4984490;28;20042;-51
2023/11/30 03:28:14;;;;;;;25.33;6.13;;;6.20;94.80;;;;;;4984484;28;20106;-51
2023/11/30 03:30:40;;;;;;;26.92;6.35;;;6.20;94.80;;;;;;4984449;28;20031;-51
2023/11/30 03:33:06;;;;;;;24.75;6.72;;;6.20;94.80;;;;;;4969500;28;20031;-52
2023/11/30 03:35:31;;;;;;;19.52;6.40;;;6.20;94.80;;;;;;4969611;29;20118;-51
2023/11/30 03:37:57;;;;;;;22.02;6.60;;;6.20;94.80;;;;;;4984059;28;20423;-51
2023/11/30 03:40:22;;;;;;;18.80;5.80;;;6.20;94.70;;;;;;4984408;28;20039;-51
2023/11/30 03:42:48;;;;;;;18.45;6.20;;;6.20;94.70;;;;;;4983906;28;20043;-52
2023/11/30 03:45:13;;;;;;;32.00;6.97;;;6.20;94.80;;;;;;4984095;28;20062;-52
2023/11/30 03:47:39;;;;;;;20.30;6.75;;;6.20;94.80;;;;;;4984101;28;20027;-51
2023/11/30 03:50:04;;;;;;;18.02;6.53;;;6.20;94.80;;;;;;4967853;29;20054;-52
2023/11/30 03:52:30;;;;;;;23.15;6.45;;;6.10;94.80;;;;;;4983946;28;20472;-52
2023/11/30 03:54:55;;;;;;;21.88;6.97;;;6.10;94.80;;;;;;4969086;28;20091;-51
2023/11/30 03:57:21;;;;;;;18.65;5.75;;;6.10;94.80;;;;;;4983853;28;20038;-51
2023/11/30 03:59:47;;;;;;;19.27;6.78;;;6.10;94.80;;;;;;4983921;28;20035;-52
2023/11/30 04:02:12;;;;;;;17.70;6.00;;;6.10;94.80;;;;;;4983049;28;20050;-51
2023/11/30 04:04:38;;;;;;;18.25;6.63;;;6.10;94.90;;;;;;4984022;28;20031;-51
2023/11/30 04:07:04;;;;;;;14.60;6.03;;;6.10;94.90;;;;;;4983640;28;20031;-52
2023/11/30 04:09:29;;;;;;;18.08;5.53;;;6.10;94.90;;;;;;4983718;28;20027;-52
2023/11/30 04:11:55;;;;;;;18.75;6.60;;;6.10;94.90;;;;;;4983538;28;20035;-51
2023/11/30 04:14:20;;;;;;;17.25;7.30;;;6.10;94.90;;;;;;4968682;28;20110;-52
2023/11/30 04:16:46;;;;;;;17.50;6.00;;;6.10;95.00;;;;;;4968552;29;20047;-52
2023/11/30 04:19:12;;;;;;;11.50;6.40;;;6.10;95.10;;;;;;4984032;28;20083;-52
2023/11/30 04:21:37;;;;;;;14.45;6.70;;;6.10;95.10;;;;;;4968585;28;20067;-52
2023/11/30 04:24:03;;;;;;;14.32;6.25;;;6.10;95.10;;;;;;4983546;28;20491;-52
2023/11/30 04:26:29;;;;;;;18.08;6.00;;;6.00;95.20;;;;;;4968488;28;20030;-52
2023/11/30 04:28:54;;;;;;;13.30;6.65;;;6.00;95.20;;;;;;4983410;28;20031;-52
2023/11/30 04:31:20;;;;;;;13.60;6.40;;;6.00;95.20;;;;;;4983488;28;20119;-52
2023/11/30 04:33:45;;;;;;;13.57;5.50;;;6.00;95.30;;;;;;4968558;28;20031;-52
2023/11/30 04:36:13;;;;;;;15.20;5.88;;;6.00;95.30;;;;;;4983293;28;20034;-52
2023/11/30 04:38:38;;;;;;;13.75;5.85;;;6.00;95.60;;;;;;4982900;28;20047;-52
2023/11/30 04:41:04;;;;;;;11.02;5.97;;;6.00;95.40;;;;;;4968114;28;20035;-52
2023/11/30 04:43:30;;;;;;;12.45;5.60;;;6.00;95.40;;;;;;4983162;28;20038;-52
2023/11/30 04:45:55;;;;;;;12.90;5.15;;;6.00;95.40;;;;;;4968241;28;20115;-52
2023/11/30 04:48:21;;;;;;;14.45;5.70;;;6.00;95.50;;;;;;4968246;29;20031;-52
2023/11/30 04:50:46;;;;;;;12.77;6.25;;;6.00;95.60;;;;;;4967024;29;20175;-52
2023/11/30 04:53:12;;;;;;;18.02;7.10;;;6.00;95.60;;;;;;4982924;28;20035;-52
2023/11/30 04:55:37;;;;;;;15.40;6.35;;;6.00;95.60;;;;;;4982968;28;20042;-52
2023/11/30 04:58:03;;;;;;;13.80;5.95;;;6.00;95.70;;;;;;4968112;28;20035;-52
2023/11/30 05:00:28;;;;;;;19.30;5.57;;;6.00;95.70;;;;;;4982917;28;20065;-52
2023/11/30 05:02:55;;;;;;;10.68;5.65;;;5.90;95.70;;;;;;4982808;28;20028;-52
2023/11/30 05:05:21;;;;;;;15.75;6.03;;;5.90;95.80;;;;;;4982931;28;20032;-52
2023/11/30 05:07:47;;;;;;;9.63;5.35;;;5.90;95.80;;;;;;4982970;28;20027;-52
2023/11/30 05:10:12;;;;;;;14.32;5.85;;;5.90;95.80;;;;;;4983148;28;20034;-52
2023/11/30 05:12:38;;;;;;;11.05;6.05;;;5.90;95.90;;;;;;4982499;28;20031;-53
2023/11/30 05:15:05;;;;;;;11.00;5.03;;;5.90;95.90;;;;;;4982290;28;20035;-53
2023/11/30 05:17:30;;;;;;;9.68;4.88;;;5.90;95.90;;;;;;4982542;28;20031;-52
2023/11/30 05:19:56;;;;;;;13.43;6.10;;;5.90;96.00;;;;;;4982941;28;20039;-52
2023/11/30 05:22:22;;;;;;;15.43;5.07;;;5.90;96.00;;;;;;4982486;28;20042;-52
2023/11/30 05:24:50;;;;;;;12.40;4.60;;;5.90;96.00;;;;;;4982827;28;20092;-52
2023/11/30 05:27:15;;;;;;;11.90;5.32;;;5.90;96.10;;;;;;4967816;29;20047;-52
2023/11/30 05:29:41;;;;;;;11.00;5.22;;;5.80;96.10;;;;;;4967742;29;20035;-52
2023/11/30 05:32:07;;;;;;;22.45;6.38;;;5.90;96.20;;;;;;4967744;29;20031;-52
2023/11/30 05:34:33;;;;;;;25.73;5.15;;;5.90;96.20;;;;;;4982562;28;20424;-52
2023/11/30 05:36:58;;;;;;;11.95;4.55;;;5.80;96.10;;;;;;4982222;28;20499;-52
2023/11/30 05:39:24;;;;;;;26.30;6.40;;;5.80;96.20;;;;;;4982540;28;20098;-52
2023/11/30 05:41:50;;;;;;;14.10;5.38;;;5.80;96.20;;;;;;4967491;28;20073;-52
2023/11/30 05:44:15;;;;;;;30.00;6.53;;;5.90;96.20;;;;;;4967599;29;20035;-52
2023/11/30 05:46:41;;;;;;;23.17;5.47;;;5.80;96.20;;;;;;4967491;29;20034;-53
2023/11/30 05:49:06;;;;;;;23.25;5.78;;;5.80;96.30;;;;;;4982533;28;20037;-52
2023/11/30 05:51:32;;;;;;;24.10;6.95;;;5.80;96.30;;;;;;4967520;28;20044;-52
2023/11/30 05:53:58;;;;;;;24.20;6.07;;;5.80;96.30;;;;;;4982363;28;20031;-52
2023/11/30 05:56:23;;;;;;;39.58;7.00;;;5.80;96.40;;;;;;4982183;28;20023;-52
2023/11/30 05:58:49;;;;;;;67.28;8.50;;;5.80;96.40;;;;;;4982424;28;20028;-52
2023/11/30 06:01:16;;;;;;;33.33;6.70;;;5.80;96.40;;;;;;4982223;28;20038;-53
2023/11/30 06:03:42;;;;;;;22.83;5.78;;;5.80;96.40;;;;;;4967463;28;20041;-52
2023/11/30 06:06:09;;;;;;;21.52;5.75;;;5.80;96.40;;;;;;4981324;28;20032;-52
2023/11/30 06:08:35;;;;;;;22.75;5.53;;;5.80;96.40;;;;;;4962432;29;20035;-52
2023/11/30 06:11:00;;;;;;;29.73;6.75;;;5.80;96.40;;;;;;4982117;28;20039;-52
2023/11/30 06:13:26;;;;;;;39.25;7.10;;;5.80;96.50;;;;;;4977751;28;20027;-52
2023/11/30 06:15:52;;;;;;;48.38;7.60;;;5.80;96.50;;;;;;4948055;29;20094;-52
2023/11/30 06:18:18;;;;;;;55.95;7.90;;;5.80;96.50;;;;;;4977702;28;20048;-52
2023/11/30 06:20:43;;;;;;;30.25;7.85;;;5.80;96.50;;;;;;4980257;28;20495;-52
2023/11/30 06:23:09;;;;;;;21.27;5.78;;;5.80;96.50;;;;;;4978597;28;20035;-52
2023/11/30 06:25:34;;;;;;;31.80;6.25;;;5.80;96.40;;;;;;4968828;28;20040;-52
2023/11/30 06:28:00;;;;;;;29.60;6.65;;;5.80;96.40;;;;;;4985189;28;20490;-52
2023/11/30 06:30:25;;;;;;;39.30;7.10;;;5.80;96.40;;;;;;4969299;29;20046;-52
2023/11/30 06:32:51;;;;;;;56.47;9.60;;;5.80;96.40;;;;;;4984623;28;20110;-52
2023/11/30 06:35:16;;;;;;;76.60;10.48;;;5.80;96.50;;;;;;4970362;28;20074;-52
2023/11/30 06:37:42;;;;;;;49.13;9.52;;;5.80;96.50;;;;;;4984842;28;20050;-52
2023/11/30 06:40:09;;;;;;;42.42;7.88;;;5.80;96.50;;;;;;4970336;28;20035;-52
2023/11/30 06:42:34;;;;;;;55.30;8.45;;;5.80;96.60;;;;;;4983256;28;20031;-52
2023/11/30 06:45:00;;;;;;;46.63;8.20;;;5.80;96.60;;;;;;4985131;28;20499;-52
2023/11/30 06:47:25;;;;;;;37.78;8.73;;;5.70;96.60;;;;;;4970279;28;20053;-52
2023/11/30 06:49:51;;;;;;;40.60;7.35;;;5.80;96.70;;;;;;4969633;28;20031;-52
2023/11/30 06:52:17;;;;;;;41.95;7.07;;;5.70;96.70;;;;;;4970314;28;20031;-52
2023/11/30 06:54:42;;;;;;;37.40;7.07;;;5.70;96.80;;;;;;4983356;28;20046;-52
2023/11/30 06:57:08;;;;;;;33.65;6.68;;;5.70;96.80;;;;;;4983322;28;20550;-52
2023/11/30 06:59:33;;;;;;;25.95;6.13;;;5.70;96.80;;;;;;4963857;29;20490;-52
2023/11/30 07:01:59;;;;;;;32.90;6.10;;;5.70;96.80;;;;;;4965376;28;20119;-52
2023/11/30 07:04:24;;;;;;;31.80;5.72;;;5.70;96.90;;;;;;4978461;28;20032;-52
2023/11/30 07:06:50;;;;;;;34.58;7.18;;;5.70;97.00;;;;;;4966254;29;20019;-52
2023/11/30 07:09:16;;;;;;;21.42;5.20;;;5.70;97.00;;;;;;4983146;28;20083;-52
2023/11/30 07:11:42;;;;;;;34.50;5.93;;;5.70;97.10;;;;;;4969706;28;20032;-52
2023/11/30 07:14:08;;;;;;;32.03;5.90;;;5.70;97.10;;;;;;4983391;28;20041;-52
2023/11/30 07:16:33;;;;;;;28.65;5.15;;;5.60;97.40;;;;;;4983095;28;20031;-52
2023/11/30 07:18:59;;;;;;;29.17;4.53;;;5.60;97.10;;;;;;4967660;28;20148;-52
2023/11/30 07:21:26;;;;;;;35.17;5.50;;;5.60;97.20;;;;;;4982820;28;20102;-52
2023/11/30 07:23:51;;;;;;;24.25;5.18;;;5.60;97.20;;;;;;4969597;28;20099;-52
2023/11/30 07:26:17;;;;;;;23.85;4.53;;;5.60;97.30;;;;;;4968342;28;20290;-52
2023/11/30 07:28:42;;;;;;;23.45;5.13;;;5.60;97.20;;;;;;4966799;28;20027;-52
2023/11/30 07:31:15;;;;;;;16.83;5.07;;;5.60;97.20;;;;;;4965983;29;20031;-52
2023/11/30 07:33:41;;;;;;;32.97;6.30;;;5.60;97.30;;;;;;4982490;28;20035;-52
2023/11/30 07:36:07;;;;;;;32.03;5.80;;;5.60;97.30;;;;;;4966582;28;20019;-52
2023/11/30 07:38:33;;;;;;;24.42;4.30;;;5.60;97.30;;;;;;4978849;28;20047;-52
2023/11/30 07:40:58;;;;;;;18.15;4.85;;;5.60;97.30;;;;;;4962194;28;20028;-52
2023/11/30 07:43:24;;;;;;;18.13;4.80;;;5.60;97.20;;;;;;4977468;28;20038;-52
2023/11/30 07:45:49;;;;;;;20.73;5.10;;;5.60;97.20;;;;;;4988164;28;20028;-52
2023/11/30 07:48:15;;;;;;;16.60;4.70;;;5.60;97.30;;;;;;4982559;28;20035;-52
2023/11/30 07:50:40;;;;;;;20.13;5.28;;;5.60;97.20;;;;;;4950095;29;20037;-52
2023/11/30 07:53:09;;;;;;;21.70;4.95;;;5.60;97.20;;;;;;4982873;28;20031;-52
2023/11/30 07:55:35;;;;;;;19.08;4.13;;;5.60;97.20;;;;;;4981580;28;20092;-52
2023/11/30 07:58:01;;;;;;;17.95;4.05;;;5.60;97.20;;;;;;4965119;28;20051;-52
2023/11/30 08:00:27;;;;;;;12.55;4.05;;;5.60;97.20;;;;;;4977976;28;20188;-52
2023/11/30 08:02:55;;;;;;;11.20;3.88;;;5.60;97.30;;;;;;4981527;28;20531;-51
2023/11/30 08:05:23;;;;;;;15.73;4.00;;;5.60;97.30;;;;;;4982291;28;20036;-52
2023/11/30 08:07:49;;;;;;;17.90;4.25;;;5.60;97.20;;;;;;4966309;28;20031;-52
2023/11/30 08:10:14;;;;;;;21.67;4.32;;;5.60;97.30;;;;;;4981644;28;20128;-52
2023/11/30 08:12:40;;;;;;;18.58;4.40;;;5.60;97.30;;;;;;4965942;28;20040;-52
2023/11/30 08:15:06;;;;;;;14.52;4.22;;;5.60;97.30;;;;;;4965926;29;20032;-52
2023/11/30 08:17:32;;;;;;;21.73;5.03;;;5.60;97.30;;;;;;4964153;28;20507;-52
2023/11/30 08:19:58;;;;;;;18.80;4.20;;;5.60;97.30;;;;;;4966426;28;20101;-52
2023/11/30 08:22:24;;;;;;;12.40;4.40;;;5.60;97.30;;;;;;4980783;28;20023;-52
2023/11/30 08:24:50;;;;;;;11.00;4.53;;;5.60;97.60;;;;;;4979796;28;20042;-52
2023/11/30 08:27:16;;;;;;;29.48;4.75;;;5.60;97.30;;;;;;4963343;28;20035;-52
2023/11/30 08:29:41;;;;;;;20.33;4.20;;;5.60;97.30;;;;;;4980013;28;20143;-52
2023/11/30 08:32:07;;;;;;;23.08;4.40;;;5.60;97.40;;;;;;4967201;28;20027;-52
2023/11/30 08:34:32;;;;;;;18.38;5.22;;;5.60;97.40;;;;;;4966487;28;20063;-52
2023/11/30 08:36:59;;;;;;;22.23;6.25;;;5.60;97.40;;;;;;4975275;28;20027;-52
2023/11/30 08:39:27;;;;;;;17.98;4.47;;;5.60;97.40;;;;;;4965944;28;20031;-52
2023/11/30 08:41:53;;;;;;;21.70;4.57;;;5.60;97.40;;;;;;4981055;28;20035;-52
2023/11/30 08:44:19;;;;;;;28.77;4.90;;;5.60;97.40;;;;;;4979699;28;20479;-52
2023/11/30 08:46:45;;;;;;;41.83;5.28;;;5.60;97.40;;;;;;4962694;28;20027;-52
2023/11/30 08:49:12;;;;;;;34.00;6.13;;;5.60;97.50;;;;;;4983159;28;20099;-52
2023/11/30 08:51:38;;;;;;;30.98;5.63;;;5.60;97.50;;;;;;4961789;28;20054;-52
2023/11/30 08:54:03;;;;;;;22.77;4.68;;;5.60;97.60;;;;;;4956822;28;20142;-51
2023/11/30 08:56:29;;;;;;;21.38;4.60;;;5.60;97.60;;;;;;4961314;28;20062;-51
2023/11/30 08:58:54;;;;;;;32.78;5.47;;;6.00;97.70;;;;;;4972635;28;20042;-51
2023/11/30 09:01:20;;;;;;;27.27;5.72;;;5.60;97.60;;;;;;4956586;28;21116;-51
2023/11/30 09:03:46;;;;;;;23.92;5.15;;;5.60;97.60;;;;;;4958471;28;20054;-51
2023/11/30 09:06:12;;;;;;;34.67;5.03;;;5.60;97.60;;;;;;4972186;28;20118;-51
2023/11/30 09:08:37;;;;;;;27.48;5.70;;;5.60;97.60;;;;;;4954932;28;20035;-51
2023/11/30 09:11:04;;;;;;;25.42;5.35;;;5.60;97.70;;;;;;4973480;28;20024;-51
2023/11/30 09:13:31;;;;;;;31.02;5.60;;;5.60;97.60;;;;;;4959463;28;20031;-51
2023/11/30 09:15:57;;;;;;;39.97;5.68;;;5.60;97.60;;;;;;4956768;28;20085;-51
2023/11/30 09:18:25;;;;;;;41.03;5.93;;;5.60;97.60;;;;;;4970446;28;20054;-51
2023/11/30 09:20:51;;;;;;;28.90;5.38;;;5.60;97.70;;;;;;4957738;28;20051;-52
2023/11/30 09:23:16;;;;;;;36.92;6.25;;;5.60;97.70;;;;;;4970541;28;20347;-51
2023/11/30 09:25:42;;;;;;;29.80;4.97;;;5.60;97.70;;;;;;4972868;28;20035;-51
2023/11/30 09:28:09;;;;;;;33.45;5.50;;;5.70;97.70;;;;;;4972483;28;20033;-51
2023/11/30 09:30:34;;;;;;;24.77;5.15;;;5.70;97.70;;;;;;4954648;28;20071;-51
2023/11/30 09:33:00;;;;;;;21.67;6.28;;;5.70;97.70;;;;;;4960777;28;20469;-51
2023/11/30 09:35:25;;;;;;;34.85;6.30;;;5.60;97.80;;;;;;4972236;28;20082;-51
2023/11/30 09:37:53;;;;;;;23.15;6.03;;;5.60;97.80;;;;;;4955873;28;20502;-50
2023/11/30 09:40:19;;;;;;;23.75;5.82;;;5.60;97.90;;;;;;4971800;28;20031;-51
2023/11/30 09:42:45;;;;;;;45.03;6.53;;;5.60;97.90;;;;;;4954964;29;20049;-51
2023/11/30 09:45:11;;;;;;;41.60;6.93;;;5.70;98.00;;;;;;4969380;28;20035;-51
2023/11/30 09:47:36;;;;;;;45.60;6.15;;;5.70;98.10;;;;;;4957255;29;20119;-51
2023/11/30 09:50:02;;;;;;;34.60;6.03;;;5.60;98.00;;;;;;4952926;28;20130;-51
2023/11/30 09:52:28;;;;;;;33.53;6.13;;;5.60;98.00;;;;;;4973312;28;20039;-51
2023/11/30 09:54:57;;;;;;;31.10;5.65;;;5.60;98.10;;;;;;4956940;29;20039;-51
2023/11/30 09:57:23;;;;;;;48.35;7.35;;;5.60;98.00;;;;;;4973318;28;20027;-51
2023/11/30 09:59:50;;;;;;;47.03;6.25;;;5.60;98.10;;;;;;4959794;28;20086;-51
2023/11/30 10:02:16;;;;;;;33.72;6.00;;;5.70;98.10;;;;;;4961687;29;20082;-51
2023/11/30 10:04:41;;;;;;;28.40;5.63;;;5.70;98.10;;;;;;4945440;29;20329;-51
2023/11/30 10:07:07;;;;;;;48.15;6.18;;;5.60;98.00;;;;;;4961461;28;20091;-51
2023/11/30 10:09:33;;;;;;;50.83;8.07;;;5.60;98.10;;;;;;4960228;29;20031;-50
2023/11/30 10:11:58;;;;;;;36.85;6.50;;;5.70;98.10;;;;;;4946739;29;20050;-50
2023/11/30 10:14:27;;;;;;;38.40;6.35;;;5.70;98.20;;;;;;4947737;29;20062;-51
2023/11/30 10:16:53;;;;;;;43.65;7.50;;;5.60;98.10;;;;;;4964592;29;20023;-51
2023/11/30 10:19:18;;;;;;;37.65;7.22;;;5.70;98.10;;;;;;4964274;28;20090;-51
2023/11/30 10:21:44;;;;;;;42.90;6.47;;;5.70;98.10;;;;;;4946728;29;20027;-51
2023/11/30 10:24:09;;;;;;;46.30;7.30;;;5.70;98.20;;;;;;4961254;29;20095;-51
2023/11/30 10:26:35;;;;;;;42.83;7.70;;;5.70;98.10;;;;;;4965396;28;20034;-51
2023/11/30 10:29:06;;;;;;;38.80;7.40;;;5.60;98.10;;;;;;4959390;28;20036;-51
2023/11/30 10:31:37;;;;;;;43.08;8.02;;;5.70;98.10;;;;;;4965915;28;20062;-51
2023/11/30 10:34:10;;;;;;;47.42;7.43;;;5.70;98.10;;;;;;4965898;29;20051;-50
2023/11/30 10:36:35;;;;;;;42.88;6.90;;;5.70;98.10;;;;;;4962199;29;20035;-50
2023/11/30 10:39:16;;;;;;;72.75;12.50;;;5.60;98.10;;;;;;4991768;28;20031;-50
2023/11/30 10:41:54;;;;;;;67.07;9.35;;;5.70;98.10;;;;;;4979960;28;20121;-51
2023/11/30 10:44:27;;;;;;;52.35;8.60;;;5.70;98.20;;;;;;4970080;28;20036;-50
2023/11/30 10:46:59;;;;;;;59.35;7.72;;;5.60;98.10;;;;;;4982205;28;20126;-50
2023/11/30 10:49:27;;;;;;;43.53;7.88;;;5.70;98.20;;;;;;4970156;28;20056;-50
2023/11/30 10:51:54;;;;;;;46.70;8.90;;;5.70;98.20;;;;;;4969760;28;20035;-50
2023/11/30 10:54:44;;;;;;;41.15;7.47;;;5.70;98.20;;;;;;4982188;28;20217;-51
2023/11/30 10:57:10;;;;;;;36.80;7.05;;;5.70;98.30;;;;;;4966616;28;20055;-50
2023/11/30 10:59:35;;;;;;;42.85;7.80;;;5.70;98.40;;;;;;4968333;28;20856;-51
2023/11/30 11:02:05;;;;;;;38.33;6.97;;;5.70;98.50;;;;;;4990969;28;20034;-50
2023/11/30 11:04:30;;;;;;;48.90;7.78;;;5.70;98.40;;;;;;4958411;28;20049;-50
2023/11/30 11:07:05;;;;;;;36.35;6.50;;;5.60;98.50;;;;;;4968798;28;20472;-51
2023/11/30 11:09:41;;;;;;;35.57;7.30;;;5.60;98.50;;;;;;4968918;28;20058;-51
2023/11/30 11:12:16;;;;;;;33.38;6.80;;;5.70;98.60;;;;;;4981945;28;20046;-51
2023/11/30 11:14:42;;;;;;;;;;;5.60;98.60;;;;;;4970781;28;20110;-51
2023/11/30 11:17:08;;;;;;;;;;;5.60;98.60;;;;;;4972331;28;20430;-51
2023/11/30 11:19:36;;;;;;;49.63;8.17;;;5.60;98.60;;;;;;4971028;28;19941;-51
2023/11/30 11:22:02;;;;;;;50.97;7.85;;;5.70;98.60;;;;;;4980369;28;20517;-51
2023/11/30 11:24:29;;;;;;;47.83;7.22;;;5.60;98.60;;;;;;4970277;28;20038;-51
2023/11/30 11:26:58;;;;;;;26.05;6.32;;;5.70;98.60;;;;;;4979869;28;20026;-51
2023/11/30 11:29:24;;;;;;;31.45;6.65;;;5.60;98.40;;;;;;4963415;28;20046;-51
2023/11/30 11:31:50;;;;;;;37.40;6.70;;;5.70;98.40;;;;;;4998407;28;20050;-51
2023/11/30 11:34:16;;;;;;;36.20;7.28;;;5.70;98.40;;;;;;4969893;28;20058;-51
2023/11/30 11:36:43;;;;;;;34.25;7.38;;;5.60;98.40;;;;;;4965796;28;20087;-51
2023/11/30 11:39:10;;;;;;;33.70;6.43;;;5.60;98.40;;;;;;4980557;28;20042;-51
2023/11/30 11:41:35;;;;;;;27.88;6.80;;;5.60;98.40;;;;;;4980579;28;20038;-51
2023/11/30 11:44:01;;;;;;;44.78;6.28;;;5.60;98.40;;;;;;4980098;28;20384;-51
2023/11/30 11:46:27;;;;;;;33.85;6.57;;;5.70;98.60;;;;;;4980929;28;20487;-49
2023/11/30 11:48:54;;;;;;;27.35;6.47;;;5.60;98.60;;;;;;4980411;28;20042;-49
2023/11/30 11:51:20;;;;;;;37.42;6.05;;;5.70;98.60;;;;;;4967801;28;20031;-49
2023/11/30 11:53:45;;;;;;;39.65;7.70;;;5.60;98.60;;;;;;4968436;28;20039;-49
2023/11/30 11:56:12;;;;;;;39.53;6.88;;;5.70;98.60;;;;;;4980335;28;20042;-49
2023/11/30 11:58:44;;;;;;;40.40;7.10;;;5.70;98.70;;;;;;4986578;28;20043;-48
2023/11/30 12:01:11;;;;;;;29.17;6.53;;;5.70;98.60;;;;;;4942816;29;20024;-49
2023/11/30 12:03:46;;;;;;;26.90;6.10;;;5.70;98.60;;;;;;4966020;29;20057;-49
2023/11/30 12:06:12;;;;;;;33.55;6.00;;;5.70;98.60;;;;;;4981171;28;20522;-49
2023/11/30 12:08:38;;;;;;;32.92;7.03;;;5.70;98.60;;;;;;4979652;28;20040;-48
2023/11/30 12:11:04;;;;;;;30.52;6.90;;;5.60;98.70;;;;;;4966085;29;20031;-48
2023/11/30 12:13:30;;;;;;;32.40;6.45;;;5.70;98.70;;;;;;4960788;28;20144;-49
2023/11/30 12:15:56;;;;;;;30.10;6.25;;;5.60;98.70;;;;;;4964503;28;20060;-49
2023/11/30 12:18:21;;;;;;;31.77;5.45;;;5.70;98.80;;;;;;4964746;29;20099;-49
2023/11/30 12:20:47;;;;;;;34.30;5.32;;;5.70;98.70;;;;;;4982018;28;20058;-49
2023/11/30 12:23:13;;;;;;;30.60;6.22;;;5.70;98.70;;;;;;4965219;28;20095;-49
2023/11/30 12:25:38;;;;;;;26.63;7.05;;;5.70;98.70;;;;;;4966751;28;20042;-49
2023/11/30 12:28:05;;;;;;;33.78;6.35;;;5.70;98.70;;;;;;4979286;28;20023;-49
2023/11/30 12:30:30;;;;;;;32.97;5.90;;;5.70;98.70;;;;;;4967631;28;20046;-49
2023/11/30 12:32:56;;;;;;;38.92;7.10;;;5.70;98.70;;;;;;4962056;28;20365;-49
2023/11/30 12:35:22;;;;;;;27.08;6.70;;;5.70;98.70;;;;;;4976534;28;20050;-51
2023/11/30 12:37:48;;;;;;;37.10;6.40;;;5.70;98.70;;;;;;4962586;28;20039;-51
2023/11/30 12:40:14;;;;;;;29.27;6.47;;;5.70;98.70;;;;;;4961309;29;20043;-51